Estación de Los Colihues

Ultimos registro cada 15 minutos 57
Estación Fecha / Hora Temperatura Humedad Lluvia Velocidad Dirección Radiación Presion
57 Los Colihues 06-09-2026 15:00 18,5 37,4 0 1 234 669,4 1002
56 Los Colihues 06-09-2026 14:45 18,4 32,8 0 1 205 689,4 1001,8
55 Los Colihues 06-09-2026 14:30 18,3 38,5 0 1 223 703,1 1002,1
54 Los Colihues 06-09-2026 14:15 17,8 37,3 0 1 222 710,6 1002,9
53 Los Colihues 06-09-2026 14:00 16,8 39,4 0 1 211 718,1 1003,1
52 Los Colihues 06-09-2026 13:45 16,8 40,4 0 1 237 721,9 1003
51 Los Colihues 06-09-2026 13:30 15,9 41,3 0 1 197 719,4 1003
50 Los Colihues 06-09-2026 13:15 15,7 46,3 0 1 209 713,1 1003
49 Los Colihues 06-09-2026 13:00 15,2 41,3 0 0,5 223 705,6 1002,9
48 Los Colihues 06-09-2026 12:45 14,1 44,9 0 1 212 689,4 1002,7
47 Los Colihues 06-09-2026 12:30 13,6 43,5 0 1 211 674,4 1002,6
46 Los Colihues 06-09-2026 12:15 12,7 46 0 1 216 656,9 1002,9
45 Los Colihues 06-09-2026 12:00 12,4 49,4 0 1 215 633,1 1003,1
44 Los Colihues 06-09-2026 11:45 11,6 49,1 0 1 213 551,9 1003,3
43 Los Colihues 06-09-2026 11:30 10,9 49,3 0 1 204 578,1 1003,4
42 Los Colihues 06-09-2026 11:15 10,3 50,2 0 1 205 545,6 1003,5
41 Los Colihues 06-09-2026 11:00 9,6 51,7 0 0,5 213 510,6 1004
40 Los Colihues 06-09-2026 10:45 9,1 51,4 0 0,5 222 473,1 1003,9
39 Los Colihues 06-09-2026 10:30 8,2 52,8 0 1 206 431,9 1003,9
38 Los Colihues 06-09-2026 10:15 7,2 54,1 0 1 206 389,4 1004,6
37 Los Colihues 06-09-2026 10:00 6,8 55,2 0 1 205 345,6 1004,9
36 Los Colihues 06-09-2026 09:45 6,4 54,2 0 0,5 192 300,6 1004,8
35 Los Colihues 06-09-2026 09:30 6,1 58 0 0 192 251,9 1004,8
34 Los Colihues 06-09-2026 09:15 7,1 54,6 0 0 185 205,6 1004,8
33 Los Colihues 06-09-2026 09:00 5,7 63,9 0 0 185 159,4 1004,8
32 Los Colihues 06-09-2026 08:45 3,6 67 0 0 185 113,1 1004,7
31 Los Colihues 06-09-2026 08:30 2,1 73,8 0 0 185 59,4 1004,8
30 Los Colihues 06-09-2026 08:15 0,8 77,5 0 0 185 13,1 1005,3
29 Los Colihues 06-09-2026 08:00 -0,1 81,6 0 0 185 3,1 1005,4
28 Los Colihues 06-09-2026 07:45 0,1 82,6 0 0 185 0,6 1005,4
27 Los Colihues 06-09-2026 07:30 -0,6 87,9 0 0 185 0,6 1005,3
26 Los Colihues 06-09-2026 07:15 -1 90,6 0 0 185 0,6 1005,3
25 Los Colihues 06-09-2026 07:00 -1,4 93,5 0 0 185 0,6 1005,3
24 Los Colihues 06-09-2026 06:45 -1,6 93,9 0 0 185 0,6 1005,4
23 Los Colihues 06-09-2026 06:30 -1,4 93,5 0 0 185 0,6 1005,7
22 Los Colihues 06-09-2026 06:15 -1,3 93,1 0 0 185 0,6 1005,7
21 Los Colihues 06-09-2026 06:00 -1,4 93,4 0 0 185 0,6 1005,6
20 Los Colihues 06-09-2026 05:45 -1,2 91,8 0 0 185 0,6 1005,9
19 Los Colihues 06-09-2026 05:30 -0,8 88,9 0 0 185 0,6 1006
18 Los Colihues 06-09-2026 05:15 -0,2 86,2 0 0 220 0,6 1006
17 Los Colihues 06-09-2026 05:00 0,9 78,4 0 0 223 0,6 1006,1
16 Los Colihues 06-09-2026 04:45 1,6 75 0 0 227 0,6 1006,1
15 Los Colihues 06-09-2026 04:30 2,3 71,6 0 0 220 0,6 1006,3
14 Los Colihues 06-09-2026 04:15 2,5 70,4 0 0 201 0,6 1006,5
13 Los Colihues 06-09-2026 04:00 2,9 68,8 0 0 201 0,6 1006,7
12 Los Colihues 06-09-2026 03:45 2,9 69,1 0 0 201 0,6 1006,9
11 Los Colihues 06-09-2026 03:30 3 68,8 0 0 202 0,6 1007,1
10 Los Colihues 06-09-2026 03:15 3,2 69,1 0 0 202 0,6 1007,1
9 Los Colihues 06-09-2026 03:00 3,7 67,5 0 0 204 0,6 1007,3
8 Los Colihues 06-09-2026 02:45 4,1 65,7 0 0 223 0,6 1007,5
7 Los Colihues 06-09-2026 02:30 4,4 64,4 0 0 229 0,6 1007,5
6 Los Colihues 06-09-2026 02:15 4,5 64,1 0 0 230 0,6 1007,8
5 Los Colihues 06-09-2026 02:00 4,8 63,5 0 0 232 0,6 1008
4 Los Colihues 06-09-2026 01:45 4,6 64,9 0 0 232 0,6 1008
3 Los Colihues 06-09-2026 01:30 4,9 64,2 0 0 230 0,6 1008
2 Los Colihues 06-09-2026 01:15 5,2 61,7 0 0 227 0,6 1008,3
1 Los Colihues 06-09-2026 01:00 5,4 62,3 0 0 225 0,6 1008,4